createdAt,value
2018-11-05T00:00:02.720Z,25.37
2018-11-05T00:02:31.284Z,25.00
2018-11-05T00:05:02.349Z,24.90
2018-11-05T00:07:30.944Z,24.40
2018-11-05T00:09:59.476Z,25.93
2018-11-05T00:12:28.148Z,25.53
2018-11-05T00:14:56.653Z,26.07
2018-11-05T00:17:25.226Z,25.40
2018-11-05T00:19:53.801Z,26.60
2018-11-05T00:22:22.308Z,25.30
2018-11-05T00:24:50.878Z,27.00
2018-11-05T00:27:19.568Z,27.63
2018-11-05T00:29:48.132Z,26.90
2018-11-05T00:32:16.717Z,27.07
2018-11-05T00:34:45.509Z,28.50
2018-11-05T00:37:14.079Z,29.77
2018-11-05T00:39:42.570Z,28.33
2018-11-05T00:42:11.161Z,29.03
2018-11-05T00:44:39.997Z,29.20
2018-11-05T00:47:08.550Z,27.80
2018-11-05T00:49:37.076Z,27.50
2018-11-05T00:52:06.193Z,29.47
2018-11-05T00:54:34.734Z,29.30
2018-11-05T00:57:04.924Z,28.47
2018-11-05T00:59:33.452Z,26.77
2018-11-05T01:02:04.135Z,26.50
2018-11-05T01:04:32.697Z,27.07
2018-11-05T01:07:03.529Z,24.87
2018-11-05T01:09:32.055Z,26.77
2018-11-05T01:12:00.598Z,26.67
2018-11-05T01:14:29.159Z,26.47
2018-11-05T01:16:57.706Z,26.27
2018-11-05T01:19:26.260Z,25.47
2018-11-05T01:21:54.785Z,25.50
2018-11-05T01:24:23.293Z,25.20
2018-11-05T01:26:51.842Z,24.73
2018-11-05T01:29:20.386Z,25.00
2018-11-05T01:31:48.945Z,24.53
2018-11-05T01:34:17.494Z,23.77
2018-11-05T01:36:46.031Z,25.17
2018-11-05T01:39:14.562Z,23.33
2018-11-05T01:41:43.228Z,23.63
2018-11-05T01:44:11.785Z,24.17
2018-11-05T01:46:40.310Z,23.70
2018-11-05T01:49:08.800Z,24.03
2018-11-05T01:51:37.458Z,22.30
2018-11-05T01:54:06.279Z,25.47
2018-11-05T01:56:34.845Z,24.57
2018-11-05T01:59:04.963Z,24.90
2018-11-05T02:01:33.544Z,24.63
2018-11-05T02:04:04.163Z,23.80
2018-11-05T02:06:32.705Z,23.73
2018-11-05T02:09:04.203Z,24.80
2018-11-05T02:11:32.737Z,23.00
2018-11-05T02:14:04.139Z,23.60
2018-11-05T02:16:32.708Z,24.80
2018-11-05T02:19:03.250Z,24.57
2018-11-05T02:21:31.816Z,27.90
2018-11-05T02:24:00.383Z,25.53
2018-11-05T02:26:28.920Z,26.07
2018-11-05T02:28:57.896Z,24.87
2018-11-05T02:31:26.418Z,25.33
2018-11-05T02:33:54.944Z,25.83
2018-11-05T02:36:23.477Z,25.37
2018-11-05T02:38:51.982Z,26.77
2018-11-05T02:41:20.547Z,24.80
2018-11-05T02:43:49.052Z,24.90
2018-11-05T02:46:17.649Z,25.60
2018-11-05T02:48:46.482Z,25.57
2018-11-05T02:51:15.261Z,27.77
2018-11-05T02:53:43.757Z,27.93
2018-11-05T02:56:12.384Z,27.30
2018-11-05T02:58:40.934Z,30.00
2018-11-05T03:01:09.452Z,30.10
2018-11-05T03:03:38.016Z,31.23
2018-11-05T03:06:06.597Z,32.23
2018-11-05T03:08:35.100Z,31.83
2018-11-05T03:11:04.888Z,31.60
2018-11-05T03:13:33.432Z,32.13
2018-11-05T03:16:02.795Z,32.23
2018-11-05T03:18:31.319Z,33.53
2018-11-05T03:21:03.226Z,31.30
2018-11-05T03:23:31.869Z,32.00
2018-11-05T03:26:00.448Z,33.23
2018-11-05T03:28:29.494Z,32.27
2018-11-05T03:30:58.091Z,31.37
2018-11-05T03:33:26.604Z,31.83
2018-11-05T03:35:55.591Z,30.23
2018-11-05T03:38:24.106Z,29.97
2018-11-05T03:40:54.091Z,28.80
2018-11-05T03:43:23.051Z,28.87
2018-11-05T03:45:51.572Z,29.70
2018-11-05T03:48:20.085Z,29.40
2018-11-05T03:50:48.771Z,27.90
2018-11-05T03:53:17.296Z,28.40
2018-11-05T03:55:45.843Z,28.40
2018-11-05T03:58:14.413Z,28.10
2018-11-05T04:00:45.066Z,27.27
2018-11-05T04:03:13.628Z,26.93
2018-11-05T04:05:42.134Z,27.70
2018-11-05T04:08:10.661Z,28.13
2018-11-05T04:10:39.492Z,26.37
2018-11-05T04:13:08.036Z,25.63
2018-11-05T04:15:36.732Z,25.13
2018-11-05T04:18:07.062Z,24.90
2018-11-05T04:20:35.578Z,25.37
2018-11-05T04:23:07.038Z,25.90
2018-11-05T04:25:35.602Z,26.30
2018-11-05T04:28:06.162Z,26.43
2018-11-05T04:30:34.728Z,26.37
2018-11-05T04:33:05.489Z,26.63
2018-11-05T04:35:34.090Z,27.00
2018-11-05T04:38:03.942Z,26.37
2018-11-05T04:40:32.481Z,26.97
2018-11-05T04:43:02.857Z,25.53
2018-11-05T04:45:31.373Z,25.73
2018-11-05T04:47:59.971Z,27.00
2018-11-05T04:50:28.570Z,24.83
2018-11-05T04:52:57.101Z,25.13
2018-11-05T04:55:25.723Z,25.80
2018-11-05T04:57:54.324Z,25.03
2018-11-05T05:00:22.880Z,26.67
2018-11-05T05:02:51.775Z,25.63
2018-11-05T05:05:21.643Z,25.63
2018-11-05T05:07:50.187Z,25.13
2018-11-05T05:10:18.737Z,26.27
2018-11-05T05:12:47.591Z,26.80
2018-11-05T05:15:16.140Z,25.17
2018-11-05T05:17:44.638Z,25.63
2018-11-05T05:20:14.439Z,24.03
2018-11-05T05:22:43.460Z,24.47
2018-11-05T05:25:12.236Z,25.20
2018-11-05T05:27:41.474Z,24.13
2018-11-05T05:30:13.856Z,25.23
2018-11-05T05:32:42.426Z,23.97
2018-11-05T05:35:10.933Z,24.93
2018-11-05T05:37:39.761Z,24.17
2018-11-05T05:40:08.521Z,25.30
2018-11-05T05:42:37.617Z,23.67
2018-11-05T05:45:08.047Z,23.47
2018-11-05T05:47:36.565Z,23.60
2018-11-05T05:50:07.659Z,26.40
2018-11-05T05:52:36.258Z,25.43
2018-11-05T05:55:06.229Z,23.47
2018-11-05T05:57:34.759Z,24.33
2018-11-05T06:00:04.511Z,24.87
2018-11-05T06:02:33.017Z,24.53
2018-11-05T06:05:02.676Z,25.37
2018-11-05T06:07:31.163Z,25.60
2018-11-05T06:09:59.768Z,24.17
2018-11-05T06:12:28.386Z,24.37
2018-11-05T06:14:57.319Z,23.70
2018-11-05T06:17:25.952Z,24.67
2018-11-05T06:19:54.588Z,23.77
2018-11-05T06:22:23.146Z,23.97
2018-11-05T06:24:51.656Z,24.50
2018-11-05T06:27:20.203Z,24.83
2018-11-05T06:29:48.880Z,25.10
2018-11-05T06:32:17.798Z,25.77
2018-11-05T06:34:46.315Z,25.77
2018-11-05T06:37:14.880Z,26.00
2018-11-05T06:39:44.649Z,26.60
2018-11-05T06:42:13.160Z,26.40
2018-11-05T06:44:41.700Z,26.97
2018-11-05T06:47:10.441Z,26.33
2018-11-05T06:49:38.997Z,26.90
2018-11-05T06:52:07.628Z,26.37
2018-11-05T06:54:36.548Z,26.60
2018-11-05T06:57:05.957Z,25.67
2018-11-05T06:59:34.552Z,26.53
2018-11-05T07:02:04.586Z,27.87
2018-11-05T07:04:33.089Z,26.90
2018-11-05T07:07:02.722Z,28.00
2018-11-05T07:09:31.560Z,26.97
2018-11-05T07:12:00.019Z,27.23
2018-11-05T07:14:28.505Z,28.70
2018-11-05T07:16:57.069Z,28.67
2018-11-05T07:19:25.746Z,29.70
2018-11-05T07:21:54.366Z,30.60
2018-11-05T07:24:22.865Z,29.67
2018-11-05T07:26:51.501Z,30.03
2018-11-05T07:29:24.216Z,28.77
2018-11-05T07:31:52.878Z,27.87
2018-11-05T07:34:21.485Z,28.83
2018-11-05T07:36:50.237Z,28.73
2018-11-05T07:39:18.843Z,29.17
2018-11-05T07:41:47.399Z,29.03
2018-11-05T07:44:15.987Z,30.23
2018-11-05T07:46:44.578Z,30.10
2018-11-05T07:49:13.092Z,30.57
2018-11-05T07:51:41.663Z,28.83
2018-11-05T07:54:10.596Z,29.83
2018-11-05T07:56:39.188Z,29.20
2018-11-05T07:59:07.798Z,29.13
2018-11-05T08:01:36.308Z,27.63
2018-11-05T08:04:05.714Z,30.57
2018-11-05T08:06:34.226Z,29.77
2018-11-05T08:09:06.055Z,28.83
2018-11-05T08:11:34.581Z,30.97
2018-11-05T08:14:05.093Z,30.63
2018-11-05T08:16:33.802Z,31.10
2018-11-05T08:19:04.589Z,30.40
2018-11-05T08:21:33.733Z,31.17
2018-11-05T08:24:04.492Z,30.63
2018-11-05T08:26:33.085Z,29.63
2018-11-05T08:29:03.395Z,29.33
2018-11-05T08:31:31.939Z,30.10
2018-11-05T08:34:00.541Z,30.17
2018-11-05T08:36:29.174Z,29.63
2018-11-05T08:38:57.805Z,29.83
2018-11-05T08:41:26.389Z,30.60
2018-11-05T08:43:54.890Z,29.00
2018-11-05T08:46:23.424Z,28.93
2018-11-05T08:48:52.010Z,30.70
2018-11-05T08:51:20.832Z,30.90
2018-11-05T08:53:49.117Z,30.00
2018-11-05T08:56:17.641Z,29.47
2018-11-05T08:58:46.233Z,30.10
2018-11-05T09:01:16.735Z,30.57
2018-11-05T09:03:46.423Z,30.63
2018-11-05T09:06:15.039Z,29.30
2018-11-05T09:08:44.391Z,30.80
2018-11-05T09:11:13.200Z,31.23
2018-11-05T09:13:41.410Z,31.77
2018-11-05T09:16:10.031Z,31.87
2018-11-05T09:18:38.625Z,31.73
2018-11-05T09:21:07.373Z,30.67
2018-11-05T09:23:35.945Z,32.43
2018-11-05T09:26:04.845Z,31.63
2018-11-05T09:28:33.354Z,31.40
2018-11-05T09:31:03.098Z,32.13
2018-11-05T09:33:31.717Z,32.47
2018-11-05T09:36:00.306Z,31.57
2018-11-05T09:38:28.862Z,30.50
2018-11-05T09:40:57.460Z,32.27
2018-11-05T09:43:26.014Z,31.97
2018-11-05T09:45:54.650Z,32.20
2018-11-05T09:48:23.398Z,32.30
2018-11-05T09:50:52.045Z,36.53
2018-11-05T09:53:20.568Z,30.70
2018-11-05T09:55:49.123Z,33.77
2018-11-05T09:58:18.035Z,33.23
2018-11-05T10:00:46.780Z,32.50
2018-11-05T10:03:16.451Z,32.03
2018-11-05T10:05:44.960Z,33.10
2018-11-05T10:08:13.850Z,30.77
2018-11-05T10:10:42.784Z,30.77
2018-11-05T10:13:11.487Z,32.60
2018-11-05T10:15:40.033Z,31.57
2018-11-05T10:18:09.010Z,30.77
2018-11-05T10:20:37.555Z,30.83
2018-11-05T10:23:06.124Z,31.17
2018-11-05T10:25:36.292Z,31.27
2018-11-05T10:28:07.644Z,30.90
2018-11-05T10:30:36.475Z,29.93
2018-11-05T10:33:06.483Z,30.27
2018-11-05T10:35:40.209Z,30.70
2018-11-05T10:38:09.102Z,31.57
2018-11-05T10:40:37.612Z,31.63
2018-11-05T10:43:06.510Z,32.33
2018-11-05T10:45:35.003Z,30.83
2018-11-05T10:48:05.933Z,30.53
2018-11-05T10:50:34.589Z,30.77
2018-11-05T10:53:05.340Z,32.30
2018-11-05T10:55:34.071Z,34.87
2018-11-05T10:58:04.562Z,33.27
2018-11-05T11:00:38.259Z,34.70
2018-11-05T11:03:12.018Z,33.17
2018-11-05T11:05:40.624Z,33.17
2018-11-05T11:08:09.184Z,31.97
2018-11-05T11:10:37.732Z,31.67
2018-11-05T11:13:06.327Z,31.93
2018-11-05T11:15:34.860Z,28.77
2018-11-05T11:18:04.082Z,28.90
2018-11-05T11:20:32.620Z,31.57
2018-11-05T11:23:03.541Z,29.60
2018-11-05T11:25:32.089Z,30.00
2018-11-05T11:28:00.775Z,31.73
2018-11-05T11:30:29.656Z,29.90
2018-11-05T11:32:58.159Z,30.23
2018-11-05T11:35:26.668Z,30.83
2018-11-05T11:37:55.660Z,29.50
2018-11-05T11:40:24.680Z,30.07
2018-11-05T11:42:53.311Z,29.73
2018-11-05T11:45:22.797Z,27.80
2018-11-05T11:47:51.354Z,29.43
2018-11-05T11:50:20.411Z,29.33
2018-11-05T11:52:49.596Z,29.60
2018-11-05T11:55:20.703Z,29.40
2018-11-05T11:57:49.284Z,28.40
2018-11-05T12:00:23.183Z,27.93
2018-11-05T12:02:52.417Z,29.23
2018-11-05T12:05:21.296Z,28.60
2018-11-05T12:07:49.688Z,28.83
2018-11-05T12:10:21.314Z,29.83
2018-11-05T12:12:49.910Z,30.47
2018-11-05T12:15:21.348Z,29.90
2018-11-05T12:17:50.981Z,29.17
2018-11-05T12:20:20.835Z,29.97
2018-11-05T12:22:50.340Z,29.70
2018-11-05T12:25:18.936Z,29.33
2018-11-05T12:27:47.471Z,28.30
2018-11-05T12:30:18.987Z,28.83
2018-11-05T12:32:48.354Z,29.87
2018-11-05T12:35:17.049Z,28.67
2018-11-05T12:37:46.735Z,29.43
2018-11-05T12:40:16.626Z,29.57
2018-11-05T12:42:46.258Z,28.40
2018-11-05T12:45:14.879Z,29.30
2018-11-05T12:47:43.457Z,30.43
2018-11-05T12:50:16.118Z,31.83
2018-11-05T12:52:45.782Z,31.97
2018-11-05T12:55:14.651Z,30.30
2018-11-05T12:57:43.249Z,29.87
2018-11-05T13:00:15.958Z,32.07
2018-11-05T13:02:44.840Z,31.27
2018-11-05T13:05:14.439Z,30.43
2018-11-05T13:07:43.057Z,31.30
2018-11-05T13:10:13.093Z,29.03
2018-11-05T13:12:41.814Z,30.33
2018-11-05T13:15:11.132Z,30.50
2018-11-05T13:17:41.230Z,29.30
2018-11-05T13:20:12.975Z,31.97
2018-11-05T13:22:48.325Z,29.70
2018-11-05T13:25:16.860Z,31.70
2018-11-05T13:27:46.921Z,34.57
2018-11-05T13:30:15.984Z,33.93
2018-11-05T13:32:44.945Z,30.83
2018-11-05T13:35:15.020Z,32.30
2018-11-05T13:37:44.237Z,30.67
2018-11-05T13:40:14.812Z,31.70
2018-11-05T13:42:43.853Z,31.20
2018-11-05T13:45:13.658Z,32.00
2018-11-05T13:47:42.936Z,30.10
2018-11-05T13:50:12.003Z,31.43
2018-11-05T13:52:40.783Z,31.17
2018-11-05T13:55:11.540Z,32.13
2018-11-05T13:57:40.532Z,32.90
2018-11-05T14:00:11.279Z,32.77
2018-11-05T14:02:40.601Z,33.13
2018-11-05T14:05:09.806Z,33.03
2018-11-05T14:07:38.602Z,32.30
2018-11-05T14:10:09.475Z,34.33
2018-11-05T14:12:38.771Z,34.80
2018-11-05T14:15:07.782Z,35.97
2018-11-05T14:17:36.533Z,34.00
2018-11-05T14:20:05.899Z,33.30
2018-11-05T14:22:34.578Z,33.50
2018-11-05T14:25:05.157Z,33.10
2018-11-05T14:27:33.905Z,32.40
2018-11-05T14:30:04.149Z,32.47
2018-11-05T14:32:32.422Z,31.47
2018-11-05T14:35:00.977Z,31.97
2018-11-05T14:37:29.727Z,33.60
2018-11-05T14:39:58.496Z,32.73
2018-11-05T14:42:27.241Z,30.37
2018-11-05T14:44:55.748Z,31.33
2018-11-05T14:47:24.279Z,30.23
2018-11-05T14:49:52.920Z,31.60
2018-11-05T14:52:21.473Z,33.00
2018-11-05T14:54:50.049Z,32.77
2018-11-05T14:57:19.066Z,30.60
2018-11-05T14:59:47.670Z,33.03
2018-11-05T15:02:21.421Z,33.53
2018-11-05T15:04:49.990Z,30.07
2018-11-05T15:07:18.591Z,31.27
2018-11-05T15:09:47.088Z,30.57
2018-11-05T15:12:16.995Z,36.63
2018-11-05T15:14:45.535Z,34.80
2018-11-05T15:17:14.091Z,32.40
2018-11-05T15:19:43.068Z,29.60
2018-11-05T15:22:11.255Z,33.90
2018-11-05T15:24:39.880Z,32.40
2018-11-05T15:27:08.500Z,30.93
2018-11-05T15:29:38.402Z,28.23
2018-11-05T15:32:07.685Z,29.60
2018-11-05T15:34:36.390Z,28.03
2018-11-05T15:37:05.603Z,30.07
2018-11-05T15:39:34.179Z,28.10
2018-11-05T15:42:05.883Z,30.00
2018-11-05T15:44:34.426Z,30.93
2018-11-05T15:47:05.465Z,30.57
2018-11-05T15:49:33.987Z,28.87
2018-11-05T15:52:04.054Z,29.87
2018-11-05T15:54:32.751Z,35.07
2018-11-05T15:57:03.165Z,33.30
2018-11-05T15:59:31.721Z,30.50
2018-11-05T16:02:05.759Z,29.93
2018-11-05T16:04:34.725Z,29.40
2018-11-05T16:07:04.645Z,31.13
2018-11-05T16:09:33.213Z,30.60
2018-11-05T16:12:04.392Z,31.13
2018-11-05T16:14:32.920Z,32.17
2018-11-05T16:17:03.158Z,31.93
2018-11-05T16:19:31.930Z,32.97
2018-11-05T16:22:00.661Z,33.20
2018-11-05T16:24:29.680Z,32.37
2018-11-05T16:26:59.747Z,31.50
2018-11-05T16:29:28.277Z,32.67
2018-11-05T16:31:56.947Z,34.90
2018-11-05T16:34:25.603Z,35.93
2018-11-05T16:36:54.356Z,34.87
2018-11-05T16:39:22.905Z,32.77
2018-11-05T16:41:51.955Z,31.80
2018-11-05T16:44:20.589Z,30.50
2018-11-05T16:46:49.553Z,30.10
2018-11-05T16:49:18.199Z,31.23
2018-11-05T16:51:46.787Z,32.23
2018-11-05T16:54:17.337Z,32.17
2018-11-05T16:56:45.873Z,32.50
2018-11-05T16:59:14.588Z,35.57
2018-11-05T17:01:43.447Z,38.13
2018-11-05T17:04:11.875Z,36.23
2018-11-05T17:06:40.909Z,35.63
2018-11-05T17:09:09.946Z,34.20
2018-11-05T17:11:38.574Z,34.53
2018-11-05T17:14:07.369Z,35.30
2018-11-05T17:16:36.005Z,34.57
2018-11-05T17:19:07.479Z,35.43
2018-11-05T17:21:36.023Z,35.43
2018-11-05T17:24:06.850Z,35.93
2018-11-05T17:26:35.557Z,35.67
2018-11-05T17:29:06.166Z,42.10
2018-11-05T17:31:34.903Z,39.70
2018-11-05T17:34:05.163Z,37.47
2018-11-05T17:36:34.007Z,38.53
2018-11-05T17:39:05.789Z,38.53
2018-11-05T17:41:36.967Z,35.73
2018-11-05T17:44:06.838Z,34.27
2018-11-05T17:46:36.277Z,33.83
2018-11-05T17:49:06.310Z,33.87
2018-11-05T17:51:35.338Z,32.43
2018-11-05T17:54:07.114Z,32.00
2018-11-05T17:56:35.629Z,34.80
2018-11-05T17:59:08.552Z,34.57
2018-11-05T18:01:37.253Z,33.10
2018-11-05T18:04:06.983Z,33.60
2018-11-05T18:06:35.492Z,32.57
2018-11-05T18:09:08.718Z,33.97
2018-11-05T18:11:37.591Z,34.47
2018-11-05T18:14:08.021Z,32.97
2018-11-05T18:16:36.556Z,31.33
2018-11-05T18:19:06.729Z,33.13
2018-11-05T18:21:35.252Z,35.63
2018-11-05T18:24:05.782Z,35.73
2018-11-05T18:26:34.591Z,37.17
2018-11-05T18:29:04.392Z,36.80
2018-11-05T18:31:33.285Z,34.90
2018-11-05T18:34:03.885Z,34.57
2018-11-05T18:36:32.519Z,34.60
2018-11-05T18:39:02.885Z,33.57
2018-11-05T18:41:31.783Z,35.10
2018-11-05T18:44:00.376Z,34.40
2018-11-05T18:46:28.940Z,35.50
2018-11-05T18:48:57.499Z,37.47
2018-11-05T18:51:26.113Z,33.77
2018-11-05T18:53:55.509Z,36.57
2018-11-05T18:56:24.119Z,35.37
2018-11-05T18:58:52.645Z,35.77
2018-11-05T19:01:21.775Z,34.90
2018-11-05T19:03:50.392Z,34.60
2018-11-05T19:06:18.901Z,34.00
2018-11-05T19:08:47.538Z,34.63
2018-11-05T19:13:58.749Z,37.57
2018-11-05T19:16:27.825Z,38.37
2018-11-05T19:18:56.443Z,36.73
2018-11-05T19:21:25.217Z,35.70
2018-11-05T19:23:53.992Z,35.33
2018-11-05T19:26:22.545Z,37.07
2018-11-05T19:28:51.205Z,36.77
2018-11-05T19:31:19.915Z,36.00
2018-11-05T19:33:48.565Z,34.97
2018-11-05T19:36:18.345Z,35.70
2018-11-05T19:38:46.986Z,33.27
2018-11-05T19:41:16.025Z,34.17
2018-11-05T19:43:45.400Z,34.47
2018-11-05T19:46:14.010Z,34.40
2018-11-05T19:48:42.653Z,35.30
2018-11-05T19:51:12.067Z,36.73
2018-11-05T19:53:41.107Z,35.37
2018-11-05T19:56:10.075Z,34.00
2018-11-05T19:58:38.611Z,34.70
2018-11-05T20:01:07.210Z,33.17
2018-11-05T20:03:36.174Z,32.33
2018-11-05T20:06:06.013Z,33.73
2018-11-05T20:08:34.904Z,32.90
2018-11-05T20:11:05.227Z,34.00
2018-11-05T20:13:34.241Z,34.27
2018-11-05T20:16:04.573Z,33.37
2018-11-05T20:18:34.000Z,35.23
2018-11-05T20:21:06.124Z,36.20
2018-11-05T20:23:34.811Z,34.90
2018-11-05T20:26:04.784Z,34.67
2018-11-05T20:28:33.557Z,34.80
2018-11-05T20:31:03.880Z,33.67
2018-11-05T20:33:32.939Z,34.23
2018-11-05T20:36:02.419Z,35.43
2018-11-05T20:38:31.052Z,33.13
2018-11-05T20:40:59.955Z,31.93
2018-11-05T20:43:28.780Z,32.60
2018-11-05T20:45:57.449Z,32.47
2018-11-05T20:48:26.263Z,31.73
2018-11-05T20:50:55.408Z,33.83
2018-11-05T20:53:24.054Z,34.53
2018-11-05T20:55:53.094Z,34.63
2018-11-05T20:58:21.817Z,33.77
2018-11-05T21:00:50.491Z,33.57
2018-11-05T21:03:19.088Z,32.30
2018-11-05T21:05:48.014Z,32.83
2018-11-05T21:08:16.623Z,32.77
2018-11-05T21:10:45.559Z,32.53
2018-11-05T21:13:14.171Z,29.70
2018-11-05T21:15:42.879Z,30.50
2018-11-05T21:18:11.768Z,30.30
2018-11-05T21:20:40.403Z,30.67
2018-11-05T21:23:09.234Z,29.07
2018-11-05T21:25:37.768Z,29.73
2018-11-05T21:28:06.581Z,31.07
2018-11-05T21:30:35.365Z,29.83
2018-11-05T21:33:05.283Z,28.33
2018-11-05T21:35:33.895Z,30.90
2018-11-05T21:38:03.885Z,32.03
2018-11-05T21:40:32.443Z,31.97
2018-11-05T21:43:02.798Z,30.47
2018-11-05T21:45:31.342Z,31.60
2018-11-05T21:47:59.998Z,30.67
2018-11-05T21:50:29.019Z,32.30
2018-11-05T21:52:57.710Z,32.97
2018-11-05T21:55:26.697Z,34.93
2018-11-05T21:57:55.214Z,32.67
2018-11-05T22:00:25.144Z,32.60
2018-11-05T22:02:59.063Z,32.50
2018-11-05T22:05:27.700Z,30.70
2018-11-05T22:07:56.259Z,32.30
2018-11-05T22:10:25.147Z,32.17
2018-11-05T22:12:53.721Z,32.63
2018-11-05T22:15:22.258Z,33.83
2018-11-05T22:17:50.839Z,31.73
2018-11-05T22:20:19.400Z,30.60
2018-11-05T22:22:48.030Z,29.80
2018-11-05T22:25:16.594Z,27.87
2018-11-05T22:27:45.157Z,30.27
2018-11-05T22:30:13.920Z,31.23
2018-11-05T22:32:42.428Z,34.00
2018-11-05T22:35:10.994Z,32.13
2018-11-05T22:37:39.599Z,31.07
2018-11-05T22:40:10.693Z,31.53
2018-11-05T22:42:39.249Z,29.00
2018-11-05T22:45:08.411Z,30.47
2018-11-05T22:47:37.088Z,29.93
2018-11-05T22:50:07.092Z,27.73
2018-11-05T22:52:36.241Z,29.40
2018-11-05T22:55:05.756Z,28.97
2018-11-05T22:57:34.384Z,33.00
2018-11-05T23:00:05.615Z,33.17
2018-11-05T23:02:34.764Z,32.00
2018-11-05T23:05:04.554Z,33.73
2018-11-05T23:07:33.073Z,33.77
2018-11-05T23:10:03.545Z,31.80
2018-11-05T23:12:32.068Z,31.70
2018-11-05T23:15:00.580Z,32.30
2018-11-05T23:17:29.108Z,32.53
2018-11-05T23:19:57.753Z,31.73
2018-11-05T23:22:32.677Z,32.23
2018-11-05T23:25:03.330Z,31.83
2018-11-05T23:27:32.199Z,30.07
2018-11-05T23:30:00.883Z,30.53
2018-11-05T23:32:30.691Z,30.23
2018-11-05T23:34:59.379Z,29.37
2018-11-05T23:37:27.913Z,29.30
2018-11-05T23:39:56.425Z,30.77
2018-11-05T23:42:24.974Z,30.50
2018-11-05T23:44:53.590Z,30.93
2018-11-05T23:47:26.294Z,31.63
2018-11-05T23:49:54.782Z,31.00
2018-11-05T23:52:23.644Z,31.93
2018-11-05T23:54:52.256Z,28.57
2018-11-05T23:57:21.104Z,29.70
2018-11-05T23:59:49.923Z,31.23
